createdAt,value
2023-04-16T00:04:28.613Z,96338.47
2023-04-16T00:09:30.646Z,96342.16
2023-04-16T00:14:33.944Z,96349.91
2023-04-16T00:19:36.083Z,96352.56
2023-04-16T00:24:38.042Z,96352.81
2023-04-16T00:29:41.316Z,96355.88
2023-04-16T00:34:43.281Z,96350.41
2023-04-16T00:39:45.789Z,96362.78
2023-04-16T00:44:49.102Z,96370.22
2023-04-16T00:49:51.204Z,96372.78
2023-04-16T00:54:53.951Z,96379.75
2023-04-16T00:59:58.136Z,96400.28
2023-04-16T01:05:00.706Z,96381.28
2023-04-16T01:10:02.942Z,96392.31
2023-04-16T01:15:07.924Z,96382.25
2023-04-16T01:20:10.442Z,96378.81
2023-04-16T01:25:16.101Z,96372.41
2023-04-16T01:30:18.055Z,96368.47
2023-04-16T01:35:20.076Z,96367.97
2023-04-16T01:40:23.363Z,96365.88
2023-04-16T01:45:25.441Z,96372.00
2023-04-16T01:50:28.253Z,96369.81
2023-04-16T01:55:31.980Z,96373.53
2023-04-16T02:00:33.838Z,96372.56
2023-04-16T02:05:35.859Z,96383.38
2023-04-16T02:10:39.142Z,96377.38
2023-04-16T02:15:45.160Z,96379.97
2023-04-16T02:20:47.980Z,96385.44
2023-04-16T02:25:51.582Z,96398.44
2023-04-16T02:30:53.560Z,96399.97
2023-04-16T02:35:55.510Z,96410.78
2023-04-16T02:40:59.376Z,96429.84
2023-04-16T02:46:01.377Z,96422.06
2023-04-16T02:51:03.431Z,96429.25
2023-04-16T02:56:07.510Z,96428.06
2023-04-16T03:01:09.617Z,96428.19
2023-04-16T03:06:11.691Z,96430.25
2023-04-16T03:11:14.977Z,96428.75
2023-04-16T03:16:17.031Z,96436.16
2023-04-16T03:21:19.183Z,96441.03
2023-04-16T03:26:22.511Z,96438.88
2023-04-16T03:31:24.575Z,96442.53
2023-04-16T03:36:27.172Z,96449.88
2023-04-16T03:41:30.472Z,96458.72
2023-04-16T03:46:32.516Z,96463.16
2023-04-16T03:51:34.480Z,96470.94
2023-04-16T03:56:39.728Z,96471.88
2023-04-16T04:01:41.712Z,96479.50
2023-04-16T04:06:45.773Z,96487.16
2023-04-16T04:11:49.080Z,96488.81
2023-04-16T04:16:50.992Z,96503.28
2023-04-16T04:21:52.998Z,96507.59
2023-04-16T04:26:57.349Z,96513.00
2023-04-16T04:31:59.348Z,96513.66
2023-04-16T04:37:01.512Z,96509.53
2023-04-16T04:42:04.910Z,96511.22
2023-04-16T04:47:06.838Z,96509.41
2023-04-16T04:52:08.951Z,96509.81
2023-04-16T04:57:12.243Z,96508.97
2023-04-16T05:02:14.279Z,96515.44
2023-04-16T05:07:16.288Z,96515.31
2023-04-16T05:12:19.604Z,96519.31
2023-04-16T05:17:21.589Z,96527.22
2023-04-16T05:22:23.576Z,96542.13
2023-04-16T05:27:26.925Z,96554.91
2023-04-16T05:32:28.894Z,96551.91
2023-04-16T05:37:31.035Z,96560.19
2023-04-16T05:42:34.339Z,96568.75
2023-04-16T05:47:36.352Z,96572.38
2023-04-16T05:52:38.381Z,96579.84
2023-04-16T05:57:41.714Z,96583.38
2023-04-16T06:02:43.683Z,96585.34
2023-04-16T06:07:45.650Z,96588.25
2023-04-16T06:12:49.022Z,96587.91
2023-04-16T06:17:51.220Z,96587.84
2023-04-16T06:22:53.287Z,96592.97
2023-04-16T06:27:56.588Z,96600.19
2023-04-16T06:32:58.770Z,96601.47
2023-04-16T06:38:00.787Z,96601.91
2023-04-16T06:43:04.190Z,96591.84
2023-04-16T06:48:06.498Z,96604.47
2023-04-16T06:53:08.633Z,96609.06
2023-04-16T06:58:11.946Z,96611.81
2023-04-16T07:03:14.349Z,96618.41
2023-04-16T07:08:16.367Z,96620.56
2023-04-16T07:13:20.422Z,96621.56
2023-04-16T07:18:23.562Z,96631.84
2023-04-16T07:23:25.645Z,96635.56
2023-04-16T07:28:28.954Z,96644.56
2023-04-16T07:33:30.970Z,96648.16
2023-04-16T07:38:34.489Z,96643.84
2023-04-16T07:43:37.942Z,96664.06
2023-04-16T07:48:39.889Z,96660.22
2023-04-16T07:53:43.325Z,96666.16
2023-04-16T07:58:46.631Z,96662.66
2023-04-16T08:03:49.003Z,96671.38
2023-04-16T08:08:51.119Z,96655.09
2023-04-16T08:13:54.500Z,96665.69
2023-04-16T08:18:56.452Z,96672.88
2023-04-16T08:23:58.446Z,96667.28
2023-04-16T08:29:01.866Z,96666.03
2023-04-16T08:34:03.873Z,96669.00
2023-04-16T08:39:05.906Z,96680.78
2023-04-16T08:44:14.083Z,96678.53
2023-04-16T08:49:20.708Z,96683.25
2023-04-16T08:54:34.645Z,96688.63
2023-04-16T08:59:38.340Z,96679.59
2023-04-16T09:04:41.455Z,96692.06
2023-04-16T09:09:44.092Z,96689.75
2023-04-16T09:14:49.568Z,96684.91
2023-04-16T09:19:51.569Z,96682.91
2023-04-16T09:24:53.521Z,96693.19
2023-04-16T09:29:56.820Z,96700.97
2023-04-16T09:35:00.537Z,96688.56
2023-04-16T09:40:04.603Z,96693.44
2023-04-16T09:45:08.625Z,96701.88
2023-04-16T09:50:17.764Z,96699.22
2023-04-16T09:55:23.454Z,96709.53
2023-04-16T10:00:28.599Z,96700.78
2023-04-16T10:05:30.671Z,96714.59
2023-04-16T10:10:32.730Z,96714.19
2023-04-16T10:15:36.187Z,96711.63
2023-04-16T10:20:38.666Z,96715.78
2023-04-16T10:25:42.022Z,96722.66
2023-04-16T10:30:52.891Z,96727.50
2023-04-16T10:36:09.510Z,96726.88
2023-04-16T10:41:11.824Z,96728.91
2023-04-16T10:46:23.251Z,96732.91
2023-04-16T10:51:28.487Z,96724.91
2023-04-16T10:56:33.030Z,96737.44
2023-04-16T11:01:37.942Z,96729.34
2023-04-16T11:06:39.996Z,96730.19
2023-04-16T11:11:42.081Z,96729.00
2023-04-16T11:16:45.637Z,96728.94
2023-04-16T11:21:47.718Z,96733.94
2023-04-16T11:26:51.731Z,96731.53
2023-04-16T11:31:55.368Z,96729.44
2023-04-16T11:36:57.496Z,96731.97
2023-04-16T11:41:59.470Z,96734.94
2023-04-16T11:47:06.471Z,96743.00
2023-04-16T11:52:08.677Z,96730.34
2023-04-16T11:57:11.357Z,96732.56
2023-04-16T12:02:14.788Z,96736.34
2023-04-16T12:07:17.004Z,96735.47
2023-04-16T12:12:26.377Z,96731.94
2023-04-16T12:17:30.676Z,96720.84
2023-04-16T12:22:37.580Z,96715.31
2023-04-16T12:27:45.509Z,96712.72
2023-04-16T12:32:50.530Z,96715.06
2023-04-16T12:37:52.624Z,96704.41
2023-04-16T12:42:54.930Z,96710.75
2023-04-16T12:47:58.344Z,96710.50
2023-04-16T12:53:00.660Z,96704.44
2023-04-16T12:58:02.692Z,96701.56
2023-04-16T13:03:06.224Z,96698.72
2023-04-16T13:08:08.356Z,96704.28
2023-04-16T13:13:10.323Z,96705.03
2023-04-16T13:18:13.636Z,96695.56
2023-04-16T13:23:15.674Z,96703.69
2023-04-16T13:28:17.645Z,96704.94
2023-04-16T13:33:21.387Z,96704.44
2023-04-16T13:38:23.353Z,96697.25
2023-04-16T13:43:25.311Z,96696.25
2023-04-16T13:48:29.305Z,96698.22
2023-04-16T13:53:31.449Z,96695.19
2023-04-16T13:58:33.534Z,96690.34
2023-04-16T14:03:38.503Z,96694.91
2023-04-16T14:08:40.692Z,96701.47
2023-04-16T14:13:42.680Z,96708.13
2023-04-16T14:18:47.274Z,96701.88
2023-04-16T14:23:49.568Z,96702.94
2023-04-16T14:28:51.569Z,96702.94
2023-04-16T14:33:54.912Z,96694.31
2023-04-16T14:38:56.957Z,96697.06
2023-04-16T14:44:00.098Z,96695.31
2023-04-16T14:49:03.999Z,96681.91
2023-04-16T14:54:06.082Z,96691.22
2023-04-16T14:59:08.240Z,96684.09
2023-04-16T15:04:11.859Z,96689.00
2023-04-16T15:09:13.938Z,96688.75
2023-04-16T15:14:16.703Z,96690.78
2023-04-16T15:19:20.057Z,96690.25
2023-04-16T15:24:22.375Z,96692.75
2023-04-16T15:29:24.523Z,96689.16
2023-04-16T15:34:28.289Z,96694.19
2023-04-16T15:39:30.867Z,96695.97
2023-04-16T15:44:33.299Z,96700.84
2023-04-16T15:49:36.562Z,96698.81
2023-04-16T15:54:38.636Z,96699.03
2023-04-16T15:59:40.769Z,96698.50
2023-04-16T16:04:46.001Z,96701.34
2023-04-16T16:09:48.255Z,96703.66
2023-04-16T16:14:50.309Z,96701.91
2023-04-16T16:19:53.851Z,96715.31
2023-04-16T16:24:57.562Z,96712.00
2023-04-16T16:30:01.049Z,96721.91
2023-04-16T16:35:04.865Z,96719.84
2023-04-16T16:40:07.777Z,96723.34
2023-04-16T16:45:11.321Z,96735.47
2023-04-16T16:50:16.107Z,96732.38
2023-04-16T16:55:18.924Z,96733.56
2023-04-16T17:00:21.858Z,96733.34
2023-04-16T17:05:25.388Z,96740.03
2023-04-16T17:10:27.934Z,96750.59
2023-04-16T17:15:29.813Z,96754.25
2023-04-16T17:20:33.811Z,96753.78
2023-04-16T17:25:35.885Z,96753.91
2023-04-16T17:30:37.865Z,96766.66
2023-04-16T17:35:41.286Z,96765.53
2023-04-16T17:40:43.275Z,96764.00
2023-04-16T17:45:45.340Z,96782.69
2023-04-16T17:50:49.750Z,96785.59
2023-04-16T17:55:52.135Z,96794.66
2023-04-16T18:00:55.303Z,96788.34
2023-04-16T18:05:59.107Z,96797.09
2023-04-16T18:11:01.086Z,96801.34
2023-04-16T18:16:03.248Z,96805.97
2023-04-16T18:21:06.602Z,96810.28
2023-04-16T18:26:09.359Z,96815.75
2023-04-16T18:31:12.650Z,96815.56
2023-04-16T18:36:16.315Z,96813.63
2023-04-16T18:41:18.634Z,96818.38
2023-04-16T18:46:20.837Z,96828.19
2023-04-16T18:51:24.901Z,96819.25
2023-04-16T18:56:29.062Z,96816.38
2023-04-16T19:01:31.213Z,96822.09
2023-04-16T19:06:34.562Z,96824.38
2023-04-16T19:11:36.620Z,96829.03
2023-04-16T19:16:38.944Z,96822.03
2023-04-16T19:21:42.300Z,96824.16
2023-04-16T19:26:44.266Z,96837.22
2023-04-16T19:31:47.118Z,96828.69
2023-04-16T19:36:50.653Z,96836.69
2023-04-16T19:41:52.613Z,96834.25
2023-04-16T19:46:54.625Z,96827.97
2023-04-16T19:51:57.988Z,96832.72
2023-04-16T19:56:59.975Z,96823.13
2023-04-16T20:02:02.035Z,96830.78
2023-04-16T20:07:05.498Z,96827.84
2023-04-16T20:12:07.577Z,96835.16
2023-04-16T20:17:10.378Z,96827.03
2023-04-16T20:22:14.866Z,96828.50
2023-04-16T20:27:19.368Z,96832.59
2023-04-16T20:32:21.471Z,96827.50
2023-04-16T20:37:24.851Z,96823.69
2023-04-16T20:42:27.631Z,96821.66
2023-04-16T20:47:29.702Z,96816.59
2023-04-16T20:52:33.245Z,96824.78
2023-04-16T20:57:35.314Z,96820.31
2023-04-16T21:02:37.693Z,96828.63
2023-04-16T21:07:41.812Z,96823.16
2023-04-16T21:12:43.759Z,96815.25
2023-04-16T21:17:45.875Z,96814.09
2023-04-16T21:22:51.085Z,96815.81
2023-04-16T21:27:53.114Z,96805.69
2023-04-16T21:32:55.162Z,96808.09
2023-04-16T21:37:58.498Z,96811.44
2023-04-16T21:43:00.967Z,96806.19
2023-04-16T21:48:03.033Z,96795.00
2023-04-16T21:53:06.671Z,96796.22
2023-04-16T21:58:08.690Z,96801.31
2023-04-16T22:03:12.384Z,96810.75
2023-04-16T22:08:24.195Z,96805.97
2023-04-16T22:13:27.801Z,96807.59
2023-04-16T22:18:32.960Z,96805.75
2023-04-16T22:23:36.568Z,96816.59
2023-04-16T22:28:38.803Z,96813.00
2023-04-16T22:33:40.730Z,96822.25
2023-04-16T22:38:44.037Z,96820.63
2023-04-16T22:43:46.088Z,96830.41
2023-04-16T22:48:48.641Z,96838.53
2023-04-16T22:53:52.048Z,96830.19
2023-04-16T22:58:54.163Z,96826.47
2023-04-16T23:03:56.398Z,96823.53
2023-04-16T23:08:59.768Z,96827.69
2023-04-16T23:14:02.914Z,96820.66
2023-04-16T23:19:04.902Z,96809.28
2023-04-16T23:24:08.472Z,96808.28
2023-04-16T23:29:10.557Z,96801.63
2023-04-16T23:34:12.720Z,96803.03
2023-04-16T23:39:16.193Z,96809.16
2023-04-16T23:44:18.172Z,96806.53
2023-04-16T23:49:20.334Z,96814.81
2023-04-16T23:54:23.785Z,96801.00
2023-04-16T23:59:25.849Z,96791.38
